Time;durP1;ratioP1;P1;durP2;ratioP2;P2;SDS_P1;SDS_P2;PMS_P1;PMS_P2;Temp;Humidity;BMP_temperature;BMP_pressure;BME280_temperature;BME280_humidity;BME280_pressure;Samples;Min_cycle;Max_cycle;Signal;HPM_P1;HPM_P2
2021/07/29 00:01:40;;;;;;;2.70;2.60;;;19.50;60.20;;;;;;5041249;28;20504;-84
2021/07/29 00:04:06;;;;;;;2.40;2.30;;;19.50;60.20;;;;;;5038752;28;20029;-84
2021/07/29 00:06:32;;;;;;;2.40;2.30;;;19.50;60.30;;;;;;5057869;28;20040;-85
2021/07/29 00:08:58;;;;;;;2.40;2.30;;;19.50;60.40;;;;;;5057841;28;20028;-85
2021/07/29 00:11:24;;;;;;;2.40;2.30;;;19.50;60.40;;;;;;5036373;28;20047;-85
2021/07/29 00:13:53;;;;;;;2.58;2.47;;;19.50;60.50;;;;;;5059515;28;20458;-85
2021/07/29 00:16:21;;;;;;;2.53;2.42;;;19.50;60.50;;;;;;5056101;28;20075;-85
2021/07/29 00:19:08;;;;;;;2.60;2.50;;;19.50;60.50;;;;;;5056362;28;20461;-84
2021/07/29 00:21:35;;;;;;;2.60;2.50;;;19.50;60.60;;;;;;5056830;28;20382;-84
2021/07/29 00:24:02;;;;;;;2.42;2.33;;;19.50;60.70;;;;;;5057880;28;20473;-85
2021/07/29 00:26:28;;;;;;;2.80;2.70;;;19.40;60.70;;;;;;5018919;28;20382;-85
2021/07/29 00:28:55;;;;;;;2.80;2.60;;;19.40;60.90;;;;;;5059079;28;20481;-85
2021/07/29 00:31:27;;;;;;;2.50;2.40;;;19.40;61.00;;;;;;5055127;28;20041;-85
2021/07/29 00:33:53;;;;;;;2.50;2.40;;;19.40;61.00;;;;;;5023983;28;20382;-85
2021/07/29 00:36:20;;;;;;;2.90;2.70;;;19.40;61.10;;;;;;5057137;28;20044;-84
2021/07/29 00:38:47;;;;;;;2.50;2.40;;;19.30;61.10;;;;;;5021567;28;21606;-85
2021/07/29 00:41:14;;;;;;;2.50;2.40;;;19.40;61.10;;;;;;5054924;28;20384;-85
2021/07/29 00:43:40;;;;;;;2.83;2.67;;;19.40;61.20;;;;;;5055622;28;20037;-84
2021/07/29 00:46:07;;;;;;;2.95;2.75;;;19.30;61.20;;;;;;5056196;28;20040;-86
2021/07/29 00:48:33;;;;;;;2.50;2.40;;;19.40;61.30;;;;;;5039452;28;20024;-85
2021/07/29 00:50:59;;;;;;;2.40;2.30;;;19.30;61.20;;;;;;5021283;28;20389;-85
2021/07/29 00:53:27;;;;;;;2.53;2.42;;;19.40;61.30;;;;;;5018762;28;20062;-83
2021/07/29 00:55:53;;;;;;;2.50;2.40;;;19.30;61.40;;;;;;5052353;28;20366;-85
2021/07/29 00:58:19;;;;;;;2.40;2.30;;;19.40;61.50;;;;;;5057160;28;20037;-85
2021/07/29 01:00:45;;;;;;;2.60;2.40;;;19.30;61.50;;;;;;5055988;28;20378;-82
2021/07/29 01:03:11;;;;;;;2.50;2.40;;;19.30;61.60;;;;;;5056751;28;20021;-84
2021/07/29 01:05:37;;;;;;;2.50;2.40;;;19.30;61.60;;;;;;5019538;28;20528;-85
2021/07/29 01:08:03;;;;;;;2.58;2.47;;;19.30;61.70;;;;;;5055822;28;20033;-83
2021/07/29 01:10:29;;;;;;;2.50;2.40;;;19.30;61.70;;;;;;5037630;28;20036;-84
2021/07/29 01:12:55;;;;;;;2.30;2.20;;;19.30;61.90;;;;;;5038736;28;20048;-85
2021/07/29 01:15:21;;;;;;;2.30;2.20;;;19.20;61.80;;;;;;5055722;28;20033;-84
2021/07/29 01:17:47;;;;;;;3.63;2.20;;;19.20;62.00;;;;;;5055030;28;20044;-83
2021/07/29 01:20:21;;;;;;;2.30;2.20;;;19.10;62.10;;;;;;5053879;28;20029;-82
2021/07/29 01:22:47;;;;;;;2.30;2.20;;;19.10;62.20;;;;;;5040049;28;20037;-85
2021/07/29 01:25:13;;;;;;;2.10;2.00;;;19.10;62.20;;;;;;5056466;28;20478;-85
2021/07/29 01:27:40;;;;;;;2.22;2.13;;;19.10;62.30;;;;;;5038556;28;20024;-85
2021/07/29 01:30:06;;;;;;;2.10;2.00;;;19.10;62.40;;;;;;5053955;28;20024;-84
2021/07/29 01:32:32;;;;;;;2.08;1.98;;;19.00;62.50;;;;;;5052363;28;20056;-84
2021/07/29 01:34:58;;;;;;;2.35;2.20;;;19.00;62.50;;;;;;5038733;28;20033;-85
2021/07/29 01:37:25;;;;;;;2.60;2.40;;;19.00;62.60;;;;;;5053969;28;20052;-85
2021/07/29 01:39:51;;;;;;;2.20;2.10;;;19.00;62.70;;;;;;5056244;28;20032;-85
2021/07/29 01:42:17;;;;;;;2.00;1.90;;;18.90;62.80;;;;;;5038124;28;20043;-85
2021/07/29 01:44:44;;;;;;;2.03;1.92;;;18.90;62.80;;;;;;5053623;28;20025;-85
2021/07/29 01:47:10;;;;;;;1.90;1.80;;;18.90;63.00;;;;;;5035526;28;20512;-85
2021/07/29 01:49:36;;;;;;;1.90;1.80;;;18.90;63.00;;;;;;5039751;28;20044;-84
2021/07/29 01:52:02;;;;;;;2.58;2.38;;;18.80;63.10;;;;;;5037908;28;20074;-85
2021/07/29 01:54:28;;;;;;;2.00;1.90;;;18.80;63.10;;;;;;5055857;28;20033;-85
2021/07/29 01:56:54;;;;;;;2.20;2.10;;;18.80;63.20;;;;;;5055083;28;20033;-83
2021/07/29 01:59:20;;;;;;;2.65;2.40;;;18.70;63.30;;;;;;5032961;28;20037;-84
2021/07/29 02:01:46;;;;;;;1.80;1.70;;;18.70;63.30;;;;;;5052252;28;20041;-84
2021/07/29 02:04:12;;;;;;;1.98;1.88;;;18.70;63.40;;;;;;5030353;28;20040;-85
2021/07/29 02:06:40;;;;;;;1.70;1.60;;;18.70;63.50;;;;;;5046863;28;20465;-85
2021/07/29 02:09:06;;;;;;;1.75;1.65;;;18.70;63.60;;;;;;5047582;28;20481;-85
2021/07/29 02:11:34;;;;;;;2.22;2.08;;;18.60;63.60;;;;;;5047725;28;20030;-85
2021/07/29 02:14:01;;;;;;;2.15;2.05;;;18.60;63.70;;;;;;5032751;28;20025;-84
2021/07/29 02:16:27;;;;;;;3.00;2.80;;;18.60;63.70;;;;;;5030237;28;20036;-84
2021/07/29 02:18:53;;;;;;;1.60;1.50;;;18.60;63.80;;;;;;5029099;28;20064;-84
2021/07/29 02:21:19;;;;;;;1.70;1.60;;;18.60;63.90;;;;;;5047703;28;20040;-83
2021/07/29 02:23:45;;;;;;;2.00;1.90;;;18.50;63.90;;;;;;5030010;28;20036;-85
2021/07/29 02:26:11;;;;;;;1.85;1.75;;;18.50;64.00;;;;;;5031631;28;20409;-85
2021/07/29 02:28:38;;;;;;;1.90;1.80;;;18.50;64.00;;;;;;5031545;28;20032;-86
2021/07/29 02:31:04;;;;;;;1.55;1.50;;;18.50;64.10;;;;;;5029042;28;20048;-84
2021/07/29 02:33:30;;;;;;;2.13;2.03;;;18.40;64.10;;;;;;5047570;28;20045;-84
2021/07/29 02:35:56;;;;;;;1.77;1.67;;;18.50;64.20;;;;;;5031466;28;20037;-85
2021/07/29 02:38:22;;;;;;;1.70;1.60;;;18.40;64.20;;;;;;5017421;28;20046;-84
2021/07/29 02:40:48;;;;;;;1.85;1.75;;;18.40;64.30;;;;;;5037864;28;20470;-85
2021/07/29 02:43:14;;;;;;;2.70;2.05;;;18.40;64.40;;;;;;5054903;28;20040;-84
2021/07/29 02:45:40;;;;;;;1.92;1.83;;;18.30;64.40;;;;;;5054450;28;20033;-84
2021/07/29 02:48:07;;;;;;;1.95;1.85;;;18.30;64.50;;;;;;5053388;28;20032;-84
2021/07/29 02:50:33;;;;;;;1.85;1.75;;;18.30;64.60;;;;;;5050672;28;20063;-85
2021/07/29 02:52:59;;;;;;;1.80;1.70;;;18.30;64.70;;;;;;5037380;28;20041;-85
2021/07/29 02:55:25;;;;;;;1.80;1.70;;;18.30;64.80;;;;;;5055192;28;20025;-85
2021/07/29 02:57:51;;;;;;;1.67;1.58;;;18.30;64.80;;;;;;5054821;28;20052;-85
2021/07/29 03:00:17;;;;;;;2.00;1.90;;;18.20;65.60;;;;;;5054283;28;20029;-86
2021/07/29 03:02:43;;;;;;;1.90;1.80;;;18.20;64.80;;;;;;5052662;28;20371;-85
2021/07/29 03:05:09;;;;;;;1.83;1.73;;;18.20;64.90;;;;;;5035131;28;20033;-84
2021/07/29 03:07:35;;;;;;;1.73;1.63;;;18.10;64.90;;;;;;5038773;28;20037;-84
2021/07/29 03:10:02;;;;;;;1.63;1.52;;;18.10;65.00;;;;;;5054468;28;20033;-85
2021/07/29 03:12:30;;;;;;;2.75;1.83;;;18.10;65.10;;;;;;5036962;28;20045;-85
2021/07/29 03:14:56;;;;;;;1.73;1.63;;;18.10;65.20;;;;;;5051917;28;20043;-84
2021/07/29 03:17:22;;;;;;;2.25;1.92;;;18.10;66.00;;;;;;5050086;28;20387;-85
2021/07/29 03:19:48;;;;;;;1.52;1.50;;;18.10;65.30;;;;;;5056624;28;20042;-85
2021/07/29 03:22:14;;;;;;;1.88;1.77;;;18.00;65.30;;;;;;5053209;28;20503;-85
2021/07/29 03:24:40;;;;;;;1.70;1.60;;;18.00;65.30;;;;;;5036468;28;20052;-84
2021/07/29 03:27:06;;;;;;;1.80;1.70;;;18.00;65.40;;;;;;5054559;28;20048;-85
2021/07/29 03:29:32;;;;;;;1.60;1.50;;;18.00;65.50;;;;;;5034050;28;20055;-84
2021/07/29 03:31:58;;;;;;;1.67;1.58;;;18.00;65.50;;;;;;5058540;28;20493;-84
2021/07/29 03:34:24;;;;;;;2.03;1.92;;;18.00;65.60;;;;;;5059007;28;20033;-85
2021/07/29 03:36:50;;;;;;;2.13;2.03;;;17.90;65.60;;;;;;5040512;28;20029;-85
2021/07/29 03:39:17;;;;;;;1.80;1.70;;;17.90;65.60;;;;;;5040389;28;20036;-86
2021/07/29 03:41:43;;;;;;;2.20;2.00;;;17.90;65.70;;;;;;5056101;28;20029;-85
2021/07/29 03:44:09;;;;;;;1.80;1.70;;;17.90;65.70;;;;;;5056554;28;20044;-85
2021/07/29 03:46:35;;;;;;;1.75;1.65;;;17.90;65.80;;;;;;5059454;28;20041;-85
2021/07/29 03:49:01;;;;;;;6.72;1.98;;;17.90;65.80;;;;;;5058173;28;20029;-85
2021/07/29 03:51:27;;;;;;;1.95;1.85;;;17.80;65.80;;;;;;5021833;28;20037;-85
2021/07/29 03:53:53;;;;;;;1.55;1.50;;;17.80;65.90;;;;;;5055601;28;20476;-85
2021/07/29 03:56:19;;;;;;;1.70;1.60;;;17.80;65.90;;;;;;5036559;28;20049;-85
2021/07/29 03:58:46;;;;;;;1.70;1.60;;;17.80;66.00;;;;;;5042078;28;20041;-85
2021/07/29 04:01:12;;;;;;;1.73;1.63;;;17.80;66.10;;;;;;5057520;28;20505;-84
2021/07/29 04:03:38;;;;;;;1.85;1.75;;;17.80;66.10;;;;;;5023283;28;20049;-85
2021/07/29 04:06:04;;;;;;;1.88;1.77;;;17.80;66.10;;;;;;5056579;28;20366;-85
2021/07/29 04:08:30;;;;;;;1.77;1.67;;;17.70;66.10;;;;;;5035759;28;20025;-85
2021/07/29 04:10:58;;;;;;;3.30;1.80;;;17.70;66.20;;;;;;5041145;28;20048;-85
2021/07/29 04:13:27;;;;;;;4.20;1.95;;;17.70;66.30;;;;;;5057998;28;20044;-85
2021/07/29 04:16:03;;;;;;;1.77;1.67;;;17.70;66.40;;;;;;5057244;28;20485;-84
2021/07/29 04:18:31;;;;;;;1.80;1.70;;;17.70;66.40;;;;;;5039972;28;20080;-85
2021/07/29 04:20:58;;;;;;;1.90;1.80;;;17.60;66.40;;;;;;5039861;28;20024;-85
2021/07/29 04:23:24;;;;;;;1.98;1.85;;;17.60;66.50;;;;;;5052787;28;20053;-85
2021/07/29 04:25:50;;;;;;;2.03;1.92;;;17.60;66.60;;;;;;5059497;28;20033;-84
2021/07/29 04:28:16;;;;;;;2.88;2.35;;;17.50;66.60;;;;;;5057535;28;20505;-85
2021/07/29 04:30:42;;;;;;;3.88;3.45;;;17.50;66.70;;;;;;5056921;28;20048;-84
2021/07/29 04:33:09;;;;;;;2.63;2.35;;;17.50;66.80;;;;;;5055849;28;20049;-85
2021/07/29 04:35:38;;;;;;;21.73;3.65;;;17.50;66.80;;;;;;5019854;28;20033;-85
2021/07/29 04:38:04;;;;;;;5.15;3.67;;;17.50;66.80;;;;;;5056433;28;20041;-84
2021/07/29 04:40:30;;;;;;;4.22;3.83;;;17.40;66.90;;;;;;5057832;28;20036;-84
2021/07/29 04:42:56;;;;;;;2.78;2.50;;;17.40;66.90;;;;;;5056283;28;20037;-84
2021/07/29 04:45:22;;;;;;;5.47;4.00;;;17.50;67.00;;;;;;5055141;28;20048;-84
2021/07/29 04:47:50;;;;;;;3.08;2.78;;;17.40;67.00;;;;;;5055703;28;20500;-85
2021/07/29 04:50:16;;;;;;;3.22;2.95;;;17.40;67.00;;;;;;5036004;28;20052;-84
2021/07/29 04:52:42;;;;;;;3.50;3.03;;;17.40;67.00;;;;;;5040820;28;20029;-82
2021/07/29 04:55:09;;;;;;;3.65;2.63;;;17.40;67.10;;;;;;5021614;28;20382;-84
2021/07/29 04:57:35;;;;;;;3.08;2.47;;;17.40;67.10;;;;;;5056776;28;20512;-85
2021/07/29 05:00:01;;;;;;;9.05;2.63;;;17.40;67.10;;;;;;5057052;28;20035;-84
2021/07/29 05:02:27;;;;;;;1.88;1.77;;;17.40;67.10;;;;;;5050567;28;20064;-84
2021/07/29 05:04:53;;;;;;;2.03;1.83;;;17.50;67.20;;;;;;5058688;28;20040;-85
2021/07/29 05:07:19;;;;;;;1.95;1.85;;;17.50;67.10;;;;;;5056488;28;20148;-85
2021/07/29 05:09:45;;;;;;;2.00;1.90;;;17.50;67.00;;;;;;5038983;28;20040;-85
2021/07/29 05:12:11;;;;;;;1.88;1.77;;;17.60;67.00;;;;;;5037107;28;20405;-85
2021/07/29 05:14:37;;;;;;;1.52;1.42;;;17.60;66.90;;;;;;5035946;28;20040;-84
2021/07/29 05:17:04;;;;;;;7.05;1.77;;;17.70;66.90;;;;;;5055913;28;20029;-85
2021/07/29 05:19:30;;;;;;;1.70;1.60;;;17.70;66.80;;;;;;5057619;28;20033;-85
2021/07/29 05:21:57;;;;;;;1.63;1.52;;;17.70;66.70;;;;;;5056085;28;20056;-83
2021/07/29 05:24:23;;;;;;;1.80;1.70;;;17.80;66.80;;;;;;5055153;28;20040;-85
2021/07/29 05:26:49;;;;;;;1.48;1.38;;;17.80;66.80;;;;;;5037105;28;20392;-84
2021/07/29 05:29:15;;;;;;;1.92;1.83;;;17.80;66.70;;;;;;5069710;28;20039;-84
2021/07/29 05:31:42;;;;;;;1.95;1.85;;;17.80;66.70;;;;;;5039828;28;20116;-84
2021/07/29 05:34:11;;;;;;;1.65;1.55;;;17.90;66.80;;;;;;5022074;28;20037;-85
2021/07/29 05:36:37;;;;;;;1.92;1.83;;;17.90;66.70;;;;;;5055920;28;20044;-84
2021/07/29 05:39:04;;;;;;;1.60;1.50;;;17.90;66.70;;;;;;5056049;28;20047;-85
2021/07/29 05:41:30;;;;;;;2.00;1.90;;;18.00;66.80;;;;;;5017848;28;20049;-85
2021/07/29 05:43:56;;;;;;;1.70;1.60;;;18.00;66.80;;;;;;5057627;28;20040;-85
2021/07/29 05:46:22;;;;;;;1.85;1.75;;;18.00;66.80;;;;;;5054170;28;20033;-84
2021/07/29 05:48:48;;;;;;;1.92;1.83;;;18.00;66.80;;;;;;5055856;28;20036;-84
2021/07/29 05:51:14;;;;;;;1.92;1.83;;;18.00;66.80;;;;;;5036567;28;20484;-84
2021/07/29 05:53:40;;;;;;;2.38;2.17;;;18.00;66.70;;;;;;5035185;28;20029;-85
2021/07/29 05:56:06;;;;;;;1.70;1.60;;;18.10;66.80;;;;;;5054746;28;20039;-85
2021/07/29 05:58:32;;;;;;;1.77;1.67;;;18.10;66.80;;;;;;5056992;28;20043;-84
2021/07/29 06:01:05;;;;;;;1.65;1.55;;;18.20;66.80;;;;;;5037138;28;20048;-85
2021/07/29 06:03:32;;;;;;;1.70;1.60;;;18.20;66.70;;;;;;5037215;28;20033;-85
2021/07/29 06:05:59;;;;;;;1.80;1.70;;;18.30;66.90;;;;;;5055060;28;20469;-85
2021/07/29 06:08:25;;;;;;;2.13;2.03;;;18.30;66.60;;;;;;5049618;28;20036;-85
2021/07/29 06:10:51;;;;;;;1.70;1.60;;;18.30;66.60;;;;;;5033746;28;20422;-84
2021/07/29 06:13:17;;;;;;;1.75;1.65;;;18.40;66.60;;;;;;5055687;28;20049;-85
2021/07/29 06:15:43;;;;;;;1.88;1.70;;;18.40;66.60;;;;;;5054910;28;20450;-85
2021/07/29 06:18:11;;;;;;;2.38;2.25;;;18.40;66.50;;;;;;5055024;28;20036;-84
2021/07/29 06:20:38;;;;;;;2.03;1.92;;;18.50;66.60;;;;;;5051821;28;20040;-85
2021/07/29 06:23:04;;;;;;;3.28;2.60;;;18.50;66.60;;;;;;5054944;28;20036;-86
2021/07/29 06:25:30;;;;;;;2.05;1.95;;;18.50;66.60;;;;;;5056267;28;20021;-85
2021/07/29 06:27:56;;;;;;;1.92;1.83;;;18.50;66.60;;;;;;5037466;28;20107;-84
2021/07/29 06:30:22;;;;;;;1.85;1.75;;;18.60;66.70;;;;;;5035617;28;20036;-85
2021/07/29 06:32:48;;;;;;;1.80;1.70;;;18.60;66.80;;;;;;5053146;28;20059;-84
2021/07/29 06:35:14;;;;;;;1.90;1.80;;;18.60;66.70;;;;;;5034470;28;20025;-85
2021/07/29 06:37:40;;;;;;;1.98;1.88;;;18.60;66.70;;;;;;5039043;28;20029;-85
2021/07/29 06:40:07;;;;;;;1.83;1.73;;;18.60;66.80;;;;;;5054996;28;20041;-83
2021/07/29 06:42:33;;;;;;;1.92;1.83;;;18.60;66.80;;;;;;5019378;28;20048;-85
2021/07/29 06:44:59;;;;;;;1.88;1.77;;;18.60;66.80;;;;;;5054849;28;20402;-86
2021/07/29 06:47:26;;;;;;;1.70;1.60;;;18.60;66.80;;;;;;5049867;28;20045;-86
2021/07/29 06:49:53;;;;;;;1.98;1.88;;;18.70;66.80;;;;;;5039474;28;20017;-85
2021/07/29 06:52:19;;;;;;;2.15;1.88;;;18.80;66.70;;;;;;5037216;28;20059;-84
2021/07/29 06:54:45;;;;;;;1.70;1.60;;;18.80;66.70;;;;;;5037216;28;20036;-85
2021/07/29 06:57:11;;;;;;;2.30;2.10;;;18.80;66.70;;;;;;5051251;28;20401;-85
2021/07/29 06:59:37;;;;;;;1.70;1.60;;;18.80;66.70;;;;;;5048527;28;20037;-87
2021/07/29 07:02:04;;;;;;;4.75;2.10;;;18.80;66.70;;;;;;5053774;28;20496;-84
2021/07/29 07:04:30;;;;;;;1.88;1.77;;;18.90;66.80;;;;;;5036704;28;20052;-84
2021/07/29 07:06:56;;;;;;;1.80;1.70;;;18.80;66.70;;;;;;5020567;28;20044;-85
2021/07/29 07:09:22;;;;;;;1.95;1.85;;;18.90;66.80;;;;;;5035154;28;20045;-86
2021/07/29 07:11:48;;;;;;;1.90;1.80;;;18.90;66.80;;;;;;5053152;28;20048;-86
2021/07/29 07:14:14;;;;;;;2.05;1.95;;;18.90;66.70;;;;;;5033850;28;20048;-85
2021/07/29 07:16:40;;;;;;;1.90;1.80;;;19.00;66.70;;;;;;5037664;28;20037;-84
2021/07/29 07:19:06;;;;;;;2.03;1.92;;;19.00;66.70;;;;;;5036828;28;20049;-86
2021/07/29 07:21:32;;;;;;;2.72;2.08;;;19.00;66.70;;;;;;5052322;28;20394;-86
2021/07/29 07:23:59;;;;;;;1.75;1.65;;;19.10;66.70;;;;;;5054656;28;20040;-85
2021/07/29 07:26:25;;;;;;;2.53;2.42;;;19.10;66.60;;;;;;5050342;28;20398;-85
2021/07/29 07:28:51;;;;;;;2.03;1.92;;;19.20;66.90;;;;;;5066181;28;20393;-86
2021/07/29 07:31:18;;;;;;;2.03;1.80;;;19.20;66.50;;;;;;5054158;28;20036;-88
2021/07/29 07:33:45;;;;;;;1.60;1.50;;;19.30;66.60;;;;;;5036887;28;20052;-86
2021/07/29 07:36:11;;;;;;;1.90;1.80;;;19.40;66.50;;;;;;5037899;28;20389;-86
2021/07/29 07:38:37;;;;;;;1.80;1.70;;;19.50;66.40;;;;;;5051590;28;20044;-86
2021/07/29 07:41:06;;;;;;;2.10;2.00;;;19.50;66.20;;;;;;5036576;28;20025;-85
2021/07/29 07:43:32;;;;;;;2.03;1.92;;;19.60;66.20;;;;;;5021339;28;20039;-85
2021/07/29 07:45:59;;;;;;;2.40;2.22;;;19.60;66.10;;;;;;5020540;28;20481;-85
2021/07/29 07:48:26;;;;;;;2.00;1.90;;;19.70;66.10;;;;;;5035402;28;20477;-86
2021/07/29 07:50:55;;;;;;;2.05;1.75;;;19.80;66.10;;;;;;5035572;28;20021;-85
2021/07/29 07:53:25;;;;;;;2.25;2.15;;;19.80;66.00;;;;;;5049986;28;20397;-85
2021/07/29 07:55:52;;;;;;;3.75;2.13;;;19.90;65.90;;;;;;5056320;28;20029;-85
2021/07/29 07:58:18;;;;;;;2.53;2.38;;;20.00;65.80;;;;;;5019548;28;20534;-86
2021/07/29 08:00:44;;;;;;;2.00;1.90;;;20.10;65.80;;;;;;5051797;28;20044;-86
2021/07/29 08:03:12;;;;;;;2.20;2.10;;;20.20;65.70;;;;;;5035550;28;20477;-85
2021/07/29 08:05:38;;;;;;;2.20;2.10;;;20.20;65.40;;;;;;5051249;28;20033;-87
2021/07/29 08:08:08;;;;;;;2.28;2.17;;;20.30;65.40;;;;;;5036293;28;20474;-85
2021/07/29 08:10:41;;;;;;;2.40;2.30;;;20.40;65.40;;;;;;5052321;28;20029;-85
2021/07/29 08:13:07;;;;;;;2.40;2.30;;;20.40;65.20;;;;;;5035039;28;20044;-86
2021/07/29 08:15:33;;;;;;;2.75;2.55;;;20.50;65.00;;;;;;5036303;28;20417;-86
2021/07/29 08:17:59;;;;;;;2.22;2.13;;;20.70;65.00;;;;;;5039806;28;20021;-86
2021/07/29 08:20:25;;;;;;;2.47;2.38;;;20.70;64.90;;;;;;5053266;28;20040;-87
2021/07/29 08:22:52;;;;;;;2.40;2.30;;;20.80;64.80;;;;;;5041760;28;20024;-85
2021/07/29 08:25:20;;;;;;;2.55;2.45;;;20.90;64.60;;;;;;5039942;28;20029;-86
2021/07/29 08:27:49;;;;;;;3.47;3.30;;;21.10;64.40;;;;;;5055408;28;20044;-86
2021/07/29 08:30:16;;;;;;;3.17;3.08;;;21.20;64.10;;;;;;5056568;28;20025;-85
2021/07/29 08:32:43;;;;;;;2.88;2.78;;;21.30;64.00;;;;;;5020572;28;20048;-85
2021/07/29 08:35:10;;;;;;;2.90;2.80;;;21.40;63.90;;;;;;5021588;28;20025;-85
2021/07/29 08:37:36;;;;;;;2.75;2.65;;;21.50;63.70;;;;;;5038883;28;20029;-86
2021/07/29 08:40:03;;;;;;;14.35;3.00;;;21.50;63.60;;;;;;5055399;28;20041;-85
2021/07/29 08:42:31;;;;;;;2.63;2.53;;;21.60;63.50;;;;;;5057209;28;20033;-87
2021/07/29 08:44:59;;;;;;;3.53;3.40;;;21.60;63.60;;;;;;5022364;28;20068;-85
2021/07/29 08:47:26;;;;;;;2.70;2.60;;;21.50;63.70;;;;;;5034804;28;20029;-85
2021/07/29 08:49:54;;;;;;;2.75;2.65;;;21.60;63.80;;;;;;5041278;28;20028;-85
2021/07/29 08:52:21;;;;;;;3.00;2.90;;;21.60;63.60;;;;;;5056611;28;20421;-85
2021/07/29 08:54:47;;;;;;;3.35;3.25;;;21.60;63.80;;;;;;5039299;28;20379;-84
2021/07/29 08:57:14;;;;;;;2.85;2.65;;;21.50;63.80;;;;;;5022846;28;20024;-86
2021/07/29 08:59:40;;;;;;;2.88;2.78;;;21.60;63.80;;;;;;5019657;28;20056;-85
2021/07/29 09:02:25;;;;;;;3.00;2.90;;;21.70;63.70;;;;;;5055573;28;20044;-86
2021/07/29 09:05:10;;;;;;;3.38;3.22;;;21.80;63.50;;;;;;5039829;28;20049;-86
2021/07/29 09:07:37;;;;;;;3.38;3.22;;;21.90;63.40;;;;;;5058186;28;20060;-85
2021/07/29 09:10:17;;;;;;;3.30;3.10;;;22.00;63.20;;;;;;5038926;28;20025;-86
2021/07/29 09:12:43;;;;;;;3.08;2.97;;;22.00;63.00;;;;;;5040610;28;20092;-86
2021/07/29 09:15:19;;;;;;;3.42;3.22;;;22.00;62.90;;;;;;5037302;28;20397;-85
2021/07/29 09:17:45;;;;;;;3.22;3.03;;;22.10;62.90;;;;;;5034776;28;20037;-87
2021/07/29 09:20:18;;;;;;;3.20;3.10;;;22.10;62.80;;;;;;5053836;28;20512;-86
2021/07/29 09:22:44;;;;;;;2.95;2.85;;;22.10;62.70;;;;;;5057207;28;20044;-85
2021/07/29 09:25:12;;;;;;;4.03;3.83;;;22.20;62.70;;;;;;5056463;28;20033;-86
2021/07/29 09:27:38;;;;;;;3.67;3.47;;;22.20;62.60;;;;;;5037479;28;20508;-85
2021/07/29 09:30:22;;;;;;;4.10;3.90;;;22.30;62.60;;;;;;5055936;28;20380;-85
2021/07/29 09:32:59;;;;;;;3.78;3.58;;;22.30;62.50;;;;;;5054564;28;20060;-87
2021/07/29 09:35:44;;;;;;;4.07;3.88;;;22.30;62.40;;;;;;5051437;28;20037;-86
2021/07/29 09:38:22;;;;;;;3.60;3.40;;;22.40;62.30;;;;;;5066241;28;20024;-85
2021/07/29 09:40:50;;;;;;;3.80;3.60;;;22.40;62.20;;;;;;5057409;28;20033;-86
2021/07/29 09:43:19;;;;;;;6.90;4.53;;;22.50;62.10;;;;;;5038093;28;20482;-88
2021/07/29 09:45:47;;;;;;;3.78;3.58;;;22.60;61.90;;;;;;5053717;28;20413;-86
2021/07/29 09:48:13;;;;;;;4.32;4.13;;;22.70;61.80;;;;;;5055097;28;20428;-87
2021/07/29 09:50:40;;;;;;;4.10;3.72;;;22.80;61.50;;;;;;5035384;28;20021;-85
2021/07/29 09:53:06;;;;;;;4.22;4.03;;;22.90;61.40;;;;;;5055084;28;20025;-85
2021/07/29 09:55:32;;;;;;;4.28;4.07;;;23.00;61.20;;;;;;5053224;28;20515;-85
2021/07/29 09:57:59;;;;;;;4.45;4.25;;;23.20;60.90;;;;;;5053936;28;20036;-86
2021/07/29 10:00:25;;;;;;;4.50;4.30;;;23.40;60.40;;;;;;5036732;28;20463;-86
2021/07/29 10:02:53;;;;;;;4.80;4.57;;;23.70;59.90;;;;;;5054442;28;20041;-86
2021/07/29 10:05:52;;;;;;;5.03;4.82;;;23.90;59.60;;;;;;5051488;28;20483;-86
2021/07/29 10:08:25;;;;;;;5.53;5.10;;;24.10;59.40;;;;;;5066336;28;20033;-86
2021/07/29 10:10:52;;;;;;;5.97;5.68;;;24.50;58.90;;;;;;5039306;28;20017;-86
2021/07/29 10:13:18;;;;;;;6.10;5.80;;;24.80;58.40;;;;;;5037329;28;20490;-85
2021/07/29 10:15:45;;;;;;;6.22;5.93;;;25.00;58.10;;;;;;5054568;28;20041;-87
2021/07/29 10:18:12;;;;;;;7.07;6.75;;;25.10;57.80;;;;;;5055229;28;20040;-86
2021/07/29 10:20:39;;;;;;;6.72;6.32;;;25.20;57.70;;;;;;5034734;28;20036;-86
2021/07/29 10:23:15;;;;;;;6.57;6.07;;;25.20;57.80;;;;;;5036705;28;20021;-87
2021/07/29 10:25:54;;;;;;;5.63;5.25;;;25.20;57.60;;;;;;5055293;28;20077;-87
2021/07/29 10:28:22;;;;;;;6.47;6.18;;;25.30;57.50;;;;;;5037368;28;20529;-86
2021/07/29 10:30:52;;;;;;;6.75;6.45;;;25.50;57.20;;;;;;5037071;28;20036;-86
2021/07/29 10:33:19;;;;;;;7.22;6.93;;;25.60;57.00;;;;;;5017702;28;20045;-87
2021/07/29 10:35:45;;;;;;;6.72;6.32;;;25.60;56.90;;;;;;5033529;28;20477;-86
2021/07/29 10:38:11;;;;;;;6.63;6.32;;;25.60;56.80;;;;;;5015509;28;20060;-87
2021/07/29 10:40:38;;;;;;;7.22;6.93;;;25.60;56.80;;;;;;5035811;28;20494;-85
2021/07/29 10:43:23;;;;;;;7.55;7.05;;;25.50;56.80;;;;;;5033900;28;20026;-86
2021/07/29 10:45:53;;;;;;;7.18;6.88;;;25.50;56.80;;;;;;5034640;28;20021;-87
2021/07/29 10:48:38;;;;;;;7.07;6.78;;;25.50;56.60;;;;;;5033938;28;20017;-86
2021/07/29 10:51:23;;;;;;;7.05;6.75;;;25.30;56.60;;;;;;5034556;28;20397;-87
2021/07/29 10:53:55;;;;;;;6.25;5.95;;;25.20;56.80;;;;;;5030381;28;20044;-87
2021/07/29 10:56:23;;;;;;;6.90;6.60;;;25.10;56.90;;;;;;5030160;28;20033;-86
2021/07/29 10:58:54;;;;;;;6.55;6.25;;;25.00;57.00;;;;;;5036758;28;20036;-87
2021/07/29 11:01:20;;;;;;;5.70;5.40;;;24.90;56.80;;;;;;5014861;28;20049;-86
2021/07/29 11:03:51;;;;;;;5.38;5.18;;;24.80;56.90;;;;;;5023511;28;20036;-86
2021/07/29 11:06:23;;;;;;;6.10;5.80;;;24.90;56.90;;;;;;5042772;28;20040;-86
2021/07/29 11:08:50;;;;;;;5.47;5.28;;;24.90;56.80;;;;;;5032999;28;20040;-87
2021/07/29 11:11:16;;;;;;;5.80;5.50;;;24.90;56.70;;;;;;5030563;28;20041;-86
2021/07/29 11:13:48;;;;;;;6.65;6.25;;;24.90;56.60;;;;;;5035536;28;20025;-86
2021/07/29 11:16:14;;;;;;;6.53;6.22;;;24.90;56.40;;;;;;5031614;28;20045;-86
2021/07/29 11:18:41;;;;;;;6.80;6.45;;;25.10;56.20;;;;;;5015905;28;20394;-86
2021/07/29 11:21:16;;;;;;;6.22;5.93;;;25.30;55.90;;;;;;5033388;28;20044;-87
2021/07/29 11:23:42;;;;;;;6.35;6.05;;;25.50;55.50;;;;;;5032022;28;20032;-86
2021/07/29 11:26:08;;;;;;;6.25;5.95;;;25.60;55.30;;;;;;5033715;28;20478;-86
2021/07/29 11:28:35;;;;;;;7.20;6.78;;;25.50;55.20;;;;;;5033167;28;20037;-86
2021/07/29 11:31:01;;;;;;;6.75;6.35;;;25.60;55.10;;;;;;5032704;28;20045;-86
2021/07/29 11:33:28;;;;;;;7.53;7.13;;;25.80;55.30;;;;;;5016901;28;20052;-85
2021/07/29 11:35:54;;;;;;;9.10;8.70;;;26.00;55.30;;;;;;5032724;28;20040;-86
2021/07/29 11:38:22;;;;;;;8.15;7.75;;;26.20;54.40;;;;;;5012927;28;20033;-86
2021/07/29 11:40:49;;;;;;;9.38;8.88;;;26.40;54.10;;;;;;5034712;28;20056;-88
2021/07/29 11:43:22;;;;;;;10.98;10.48;;;26.60;53.90;;;;;;5031045;28;20514;-86
2021/07/29 11:45:48;;;;;;;11.48;10.93;;;26.80;53.70;;;;;;5015661;28;20040;-86
2021/07/29 11:48:21;;;;;;;10.77;10.27;;;26.90;53.40;;;;;;5016851;28;20032;-86
2021/07/29 11:50:48;;;;;;;9.60;9.18;;;26.90;53.20;;;;;;5032579;28;20044;-85
2021/07/29 11:53:14;;;;;;;9.98;9.52;;;26.90;53.20;;;;;;5034431;28;20029;-85
2021/07/29 11:55:40;;;;;;;10.85;10.35;;;27.00;53.20;;;;;;5053775;28;20493;-86
2021/07/29 11:58:08;;;;;;;10.57;10.07;;;27.00;53.10;;;;;;5020609;28;20022;-86
2021/07/29 12:00:35;;;;;;;10.93;10.43;;;27.10;53.00;;;;;;5036242;28;20048;-86
2021/07/29 12:03:01;;;;;;;9.60;9.10;;;27.20;52.90;;;;;;5005573;28;20037;-85
2021/07/29 12:05:27;;;;;;;8.68;8.25;;;27.30;52.70;;;;;;5033664;28;20048;-85
2021/07/29 12:07:54;;;;;;;8.25;7.85;;;27.40;52.50;;;;;;5038445;28;20398;-88
2021/07/29 12:10:22;;;;;;;7.90;7.53;;;27.50;52.40;;;;;;5036755;28;20030;-86
2021/07/29 12:12:48;;;;;;;8.85;8.10;;;27.50;52.10;;;;;;5018394;28;20030;-86
2021/07/29 12:15:14;;;;;;;8.63;8.23;;;27.60;52.00;;;;;;5036180;28;20024;-86
2021/07/29 12:17:40;;;;;;;9.13;8.68;;;27.70;51.80;;;;;;5035192;28;20014;-86
2021/07/29 12:20:07;;;;;;;7.95;7.55;;;27.60;51.70;;;;;;5053011;28;20033;-87
2021/07/29 12:22:37;;;;;;;7.55;7.25;;;27.70;51.70;;;;;;5035420;28;20042;-86
2021/07/29 12:25:05;;;;;;;9.00;8.60;;;27.80;51.60;;;;;;5037649;28;20025;-87
2021/07/29 12:27:44;;;;;;;8.75;8.35;;;27.80;51.30;;;;;;5036536;28;20474;-86
2021/07/29 12:30:38;;;;;;;9.02;8.63;;;27.70;51.20;;;;;;5035609;28;20037;-86
2021/07/29 12:33:09;;;;;;;7.72;7.35;;;27.60;51.30;;;;;;5054061;28;20088;-86
2021/07/29 12:35:36;;;;;;;9.88;9.27;;;27.30;51.40;;;;;;5053163;28;20033;-87
2021/07/29 12:38:02;;;;;;;9.48;9.07;;;27.20;51.50;;;;;;5006676;28;20044;-86
2021/07/29 12:40:31;;;;;;;9.50;9.10;;;27.00;51.60;;;;;;5057448;28;20493;-87
2021/07/29 12:43:23;;;;;;;15.15;8.85;;;26.90;51.60;;;;;;5056793;28;20045;-86
2021/07/29 12:45:56;;;;;;;12.52;11.93;;;26.80;51.60;;;;;;5056704;28;20045;-87
2021/07/29 12:48:23;;;;;;;10.00;9.43;;;26.70;51.70;;;;;;5038669;28;20477;-87